createdAt,value
2022-12-11T00:00:44.982Z,100508.78
2022-12-11T00:03:15.876Z,100471.78
2022-12-11T00:05:43.862Z,100511.38
2022-12-11T00:08:11.088Z,100506.00
2022-12-11T00:10:38.245Z,100484.59
2022-12-11T00:13:04.927Z,100484.75
2022-12-11T00:15:31.726Z,100502.84
2022-12-11T00:17:58.239Z,100485.59
2022-12-11T00:20:24.772Z,100492.44
2022-12-11T00:22:51.161Z,100412.91
2022-12-11T00:25:17.518Z,100484.72
2022-12-11T00:27:45.905Z,100521.00
2022-12-11T00:30:12.770Z,100499.53
2022-12-11T00:32:39.149Z,100499.53
2022-12-11T00:35:05.899Z,100491.66
2022-12-11T00:37:32.351Z,100489.16
2022-12-11T00:39:58.797Z,100511.66
2022-12-11T00:42:25.188Z,100471.84
2022-12-11T00:44:52.102Z,100380.22
2022-12-11T00:47:18.478Z,100500.31
2022-12-11T00:49:49.630Z,100487.41
2022-12-11T00:52:17.696Z,100443.41
2022-12-11T00:54:44.313Z,100494.31
2022-12-11T00:57:10.685Z,100507.31
2022-12-11T00:59:37.096Z,100463.34
2022-12-11T01:02:03.508Z,100464.19
2022-12-11T01:04:30.011Z,100452.13
2022-12-11T01:06:56.487Z,100486.75
2022-12-11T01:09:41.427Z,100499.72
2022-12-11T01:12:07.776Z,100451.22
2022-12-11T01:14:34.189Z,100416.84
2022-12-11T01:17:00.629Z,100465.22
2022-12-11T01:19:27.037Z,100481.63
2022-12-11T01:21:53.554Z,100441.97
2022-12-11T01:24:19.945Z,100498.09
2022-12-11T01:26:46.310Z,100455.78
2022-12-11T01:29:12.696Z,100492.94
2022-12-11T01:31:39.172Z,100426.44
2022-12-11T01:34:05.492Z,100377.13
2022-12-11T01:36:31.857Z,100479.06
2022-12-11T01:38:58.219Z,100486.00
2022-12-11T01:41:24.632Z,100461.84
2022-12-11T01:44:16.054Z,100510.25
2022-12-11T01:46:43.092Z,100492.06
2022-12-11T01:49:13.797Z,100483.44
2022-12-11T01:51:48.758Z,100409.16
2022-12-11T01:54:18.525Z,100492.75
2022-12-11T01:56:46.466Z,100496.22
2022-12-11T01:59:15.792Z,100401.22
2022-12-11T02:01:54.581Z,100464.38
2022-12-11T02:04:21.302Z,100485.94
2022-12-11T02:06:50.618Z,100498.00
2022-12-11T02:09:20.639Z,100437.63
2022-12-11T02:11:55.013Z,100476.53
2022-12-11T02:14:43.335Z,100452.34
2022-12-11T02:17:19.451Z,100465.28
2022-12-11T02:20:08.271Z,100404.03
2022-12-11T02:22:51.674Z,100491.28
2022-12-11T02:25:43.101Z,100492.00
2022-12-11T02:28:20.976Z,100483.41
2022-12-11T02:30:51.589Z,100482.56
2022-12-11T02:33:23.364Z,100466.13
2022-12-11T02:35:50.523Z,100460.09
2022-12-11T02:38:24.341Z,100477.44
2022-12-11T02:40:53.536Z,100418.66
2022-12-11T02:43:22.357Z,100429.03
2022-12-11T02:45:51.258Z,100413.50
2022-12-11T02:48:20.296Z,100446.22
2022-12-11T02:50:48.865Z,100468.75
2022-12-11T02:53:19.658Z,100449.72
2022-12-11T02:55:49.938Z,100453.22
2022-12-11T02:58:19.542Z,100455.75
2022-12-11T03:00:46.379Z,100440.13
2022-12-11T03:03:13.840Z,100466.91
2022-12-11T03:05:41.919Z,100413.44
2022-12-11T03:08:08.400Z,100331.22
2022-12-11T03:10:35.103Z,100454.75
2022-12-11T03:13:02.973Z,100413.34
2022-12-11T03:15:41.549Z,100402.19
2022-12-11T03:18:17.627Z,100409.06
2022-12-11T03:20:47.502Z,100409.06
2022-12-11T03:23:35.443Z,100456.59
2022-12-11T03:26:04.508Z,100302.94
2022-12-11T03:28:49.234Z,100405.69
2022-12-11T03:31:45.593Z,100448.97
2022-12-11T03:34:41.480Z,100449.75
2022-12-11T03:37:09.618Z,100414.22
2022-12-11T03:39:41.141Z,100430.75
2022-12-11T03:42:11.771Z,100424.72
2022-12-11T03:44:38.459Z,100351.28
2022-12-11T03:47:08.228Z,100420.31
2022-12-11T03:49:41.812Z,100442.91
2022-12-11T03:52:12.171Z,100417.78
2022-12-11T03:54:40.640Z,100447.13
2022-12-11T03:57:08.376Z,100458.41
2022-12-11T03:59:34.818Z,100397.94
2022-12-11T04:02:01.336Z,100458.34
2022-12-11T04:04:28.050Z,100439.22
2022-12-11T04:06:54.451Z,100424.66
2022-12-11T04:09:20.812Z,100423.88
2022-12-11T04:11:47.198Z,100441.19
2022-12-11T04:14:33.306Z,100446.34
2022-12-11T04:17:01.208Z,100423.09
2022-12-11T04:19:46.235Z,100388.53
2022-12-11T04:22:33.179Z,100434.31
2022-12-11T04:25:00.554Z,100445.56
2022-12-11T04:27:45.865Z,100423.97
2022-12-11T04:30:24.662Z,100417.94
2022-12-11T04:32:54.252Z,100436.03
2022-12-11T04:35:21.062Z,100437.81
2022-12-11T04:37:47.548Z,100432.56
2022-12-11T04:40:17.260Z,100424.88
2022-12-11T04:42:43.698Z,100420.53
2022-12-11T04:45:11.636Z,100415.34
2022-12-11T04:47:39.632Z,100422.16
2022-12-11T04:50:07.748Z,100432.63
2022-12-11T04:52:34.182Z,100380.81
2022-12-11T04:55:00.490Z,100413.63
2022-12-11T04:57:26.809Z,100411.94
2022-12-11T04:59:53.141Z,100358.41
2022-12-11T05:02:19.566Z,100361.78
2022-12-11T05:04:46.028Z,100284.19
2022-12-11T05:07:12.404Z,100427.44
2022-12-11T05:09:38.783Z,100380.81
2022-12-11T05:12:05.271Z,100356.59
2022-12-11T05:14:32.353Z,100370.38
2022-12-11T05:16:59.530Z,100407.59
2022-12-11T05:19:26.767Z,100413.59
2022-12-11T05:21:53.301Z,100398.09
2022-12-11T05:24:19.791Z,100384.22
2022-12-11T05:26:46.166Z,100406.63
2022-12-11T05:29:12.551Z,100377.34
2022-12-11T05:31:38.993Z,100361.84
2022-12-11T05:34:05.379Z,100384.34
2022-12-11T05:36:33.670Z,100377.44
2022-12-11T05:39:01.137Z,100408.53
2022-12-11T05:41:29.469Z,100392.97
2022-12-11T05:43:56.144Z,100392.97
2022-12-11T05:46:25.332Z,100401.63
2022-12-11T05:48:54.837Z,100396.44
2022-12-11T05:51:21.359Z,100375.72
2022-12-11T05:53:49.546Z,100409.38
2022-12-11T05:56:19.633Z,100400.75
2022-12-11T05:58:47.642Z,100415.41
2022-12-11T06:01:26.390Z,100371.41
2022-12-11T06:03:54.124Z,100398.13
2022-12-11T06:06:21.014Z,100342.84
2022-12-11T06:08:51.153Z,100409.34
2022-12-11T06:11:23.571Z,100396.28
2022-12-11T06:13:50.469Z,100386.78
2022-12-11T06:16:16.807Z,100372.09
2022-12-11T06:18:44.792Z,100403.28
2022-12-11T06:21:15.768Z,100406.75
2022-12-11T06:23:43.121Z,100403.28
2022-12-11T06:26:10.653Z,100377.31
2022-12-11T06:28:37.602Z,100368.78
2022-12-11T06:31:05.225Z,100352.41
2022-12-11T06:33:31.936Z,100384.34
2022-12-11T06:36:05.582Z,100363.66
2022-12-11T06:38:32.213Z,100348.94
2022-12-11T06:41:00.933Z,100361.03
2022-12-11T06:43:27.246Z,100395.53
2022-12-11T06:45:54.509Z,100400.69
2022-12-11T06:48:23.547Z,100368.66
2022-12-11T06:50:49.941Z,100385.03
2022-12-11T06:53:17.821Z,100370.38
2022-12-11T06:55:44.239Z,100406.63
2022-12-11T06:58:11.456Z,100400.63
2022-12-11T07:00:38.921Z,100417.09
2022-12-11T07:03:05.673Z,100414.56
2022-12-11T07:05:32.797Z,100354.97
2022-12-11T07:07:59.616Z,100372.25
2022-12-11T07:10:26.230Z,100367.03
2022-12-11T07:12:53.505Z,100379.06
2022-12-11T07:15:19.990Z,100406.59
2022-12-11T07:17:46.710Z,100426.50
2022-12-11T07:20:13.084Z,100379.00
2022-12-11T07:22:45.997Z,100413.53
2022-12-11T07:25:13.243Z,100423.91
2022-12-11T07:27:39.805Z,100356.59
2022-12-11T07:30:06.709Z,100418.75
2022-12-11T07:32:33.365Z,100437.75
2022-12-11T07:34:59.800Z,100401.50
2022-12-11T07:37:26.119Z,100421.34
2022-12-11T07:39:52.537Z,100369.56
2022-12-11T07:42:18.924Z,100387.72
2022-12-11T07:44:45.354Z,100398.91
2022-12-11T07:47:11.690Z,100399.81
2022-12-11T07:49:38.283Z,100405.66
2022-12-11T07:52:04.783Z,100423.88
2022-12-11T07:54:35.362Z,100398.84
2022-12-11T07:57:17.814Z,100194.38
2022-12-11T07:59:46.479Z,100160.72
2022-12-11T08:02:15.198Z,100304.75
2022-12-11T08:04:41.641Z,100324.66
2022-12-11T08:07:12.630Z,100336.75
2022-12-11T08:09:39.042Z,100403.19
2022-12-11T08:12:05.794Z,100405.78
2022-12-11T08:14:32.136Z,100434.25
2022-12-11T08:17:00.124Z,100282.38
2022-12-11T08:19:26.585Z,100240.94
2022-12-11T08:21:52.953Z,100430.03
2022-12-11T08:24:20.860Z,100436.00
2022-12-11T08:26:48.082Z,100294.38
2022-12-11T08:29:14.957Z,100266.63
2022-12-11T08:31:41.912Z,100415.13
2022-12-11T08:34:08.308Z,100251.03
2022-12-11T08:36:34.789Z,100246.81
2022-12-11T08:39:01.160Z,100275.31
2022-12-11T08:41:30.132Z,100347.91
2022-12-11T08:43:58.450Z,100222.69
2022-12-11T08:46:27.413Z,100304.63
2022-12-11T08:48:55.066Z,100431.66
2022-12-11T08:51:24.609Z,100261.63
2022-12-11T08:54:01.382Z,100404.94
2022-12-11T08:56:29.135Z,100416.16
2022-12-11T08:58:55.905Z,100446.34
2022-12-11T09:01:25.008Z,100397.22
2022-12-11T09:03:52.683Z,100415.34
2022-12-11T09:06:21.060Z,100438.59
2022-12-11T09:08:52.520Z,100411.84
2022-12-11T09:11:25.756Z,100412.72
2022-12-11T09:13:53.983Z,100448.00
2022-12-11T09:16:23.195Z,100409.59
2022-12-11T09:18:51.474Z,100309.53
2022-12-11T09:21:20.469Z,100386.50
2022-12-11T09:23:47.324Z,100437.66
2022-12-11T09:26:16.597Z,100277.06
2022-12-11T09:28:46.720Z,100440.28
2022-12-11T09:31:16.965Z,100435.13
2022-12-11T09:33:44.125Z,100407.53
2022-12-11T09:36:12.047Z,100410.09
2022-12-11T09:38:39.553Z,100397.84
2022-12-11T09:41:21.385Z,100441.06
2022-12-11T09:44:02.839Z,100442.75
2022-12-11T09:46:34.017Z,100435.94
2022-12-11T09:49:04.539Z,100434.28
2022-12-11T09:51:39.916Z,100398.00
2022-12-11T09:54:06.528Z,100387.72
2022-12-11T09:56:39.192Z,100313.50
2022-12-11T09:59:16.973Z,100423.97
2022-12-11T10:01:53.879Z,100339.31
2022-12-11T10:04:39.133Z,100429.09
2022-12-11T10:07:30.259Z,100411.81
2022-12-11T10:09:56.601Z,100425.56
2022-12-11T10:12:29.275Z,100409.97
2022-12-11T10:15:10.646Z,100422.09
2022-12-11T10:17:38.906Z,100426.34
2022-12-11T10:20:28.693Z,100396.16
2022-12-11T10:22:56.931Z,100280.56
2022-12-11T10:25:34.299Z,100425.66
2022-12-11T10:28:11.466Z,100416.16
2022-12-11T10:30:40.886Z,100376.50
2022-12-11T10:33:22.676Z,100423.84
2022-12-11T10:35:54.804Z,100385.88
2022-12-11T10:38:38.252Z,100399.63
2022-12-11T10:41:11.221Z,100413.44
2022-12-11T10:43:40.276Z,100403.16
2022-12-11T10:46:18.086Z,100354.88
2022-12-11T10:48:53.751Z,100304.88
2022-12-11T10:51:24.449Z,100411.13
2022-12-11T10:54:02.600Z,100275.53
2022-12-11T10:56:34.035Z,100388.69
2022-12-11T10:59:01.248Z,100389.53
2022-12-11T11:01:29.796Z,100403.41
2022-12-11T11:04:21.135Z,100353.34
2022-12-11T11:06:48.863Z,100355.06
2022-12-11T11:09:35.510Z,100394.81
2022-12-11T11:12:07.592Z,100386.19
2022-12-11T11:14:34.486Z,100372.38
2022-12-11T11:17:01.351Z,100247.34
2022-12-11T11:19:32.294Z,100300.72
2022-12-11T11:22:14.200Z,100326.66
2022-12-11T11:24:44.672Z,100373.22
2022-12-11T11:27:26.999Z,100274.84
2022-12-11T11:29:59.556Z,100322.38
2022-12-11T11:32:33.135Z,100356.91
2022-12-11T11:35:26.549Z,100360.34
2022-12-11T11:38:19.075Z,100350.00
2022-12-11T11:41:06.619Z,100332.78
2022-12-11T11:43:55.585Z,100320.69
2022-12-11T11:46:36.579Z,100349.16
2022-12-11T11:49:24.850Z,100350.91
2022-12-11T11:52:01.575Z,100327.63
2022-12-11T11:54:55.341Z,100297.44
2022-12-11T11:57:42.410Z,100337.97
2022-12-11T12:00:30.220Z,100340.56
2022-12-11T12:03:03.444Z,100337.97
2022-12-11T12:05:45.054Z,100331.09
2022-12-11T12:08:33.752Z,100300.91
2022-12-11T12:11:41.762Z,100334.47
2022-12-11T12:17:23.324Z,100341.38
2022-12-11T12:19:57.174Z,100276.72
2022-12-11T12:22:57.310Z,100342.28
2022-12-11T12:25:28.552Z,100331.94
2022-12-11T12:28:16.145Z,100200.88
2022-12-11T12:30:59.734Z,100343.13
2022-12-11T12:33:48.331Z,100306.84
2022-12-11T12:36:24.412Z,100331.00
2022-12-11T12:39:02.012Z,100255.09
2022-12-11T12:41:54.674Z,100297.41
2022-12-11T12:44:23.785Z,100263.78
2022-12-11T12:47:15.075Z,100289.69
2022-12-11T12:49:48.666Z,100315.56
2022-12-11T12:52:21.795Z,100290.53
2022-12-11T12:55:12.433Z,100284.50
2022-12-11T12:57:41.879Z,100279.34
2022-12-11T13:00:14.818Z,100312.13
2022-12-11T13:02:50.238Z,100282.78
2022-12-11T13:05:25.350Z,100280.19
2022-12-11T13:07:58.063Z,100322.44
2022-12-11T13:10:28.563Z,100321.59
2022-12-11T13:12:55.167Z,100310.34
2022-12-11T13:15:38.915Z,100317.25
2022-12-11T13:18:33.930Z,100303.47
2022-12-11T13:21:00.920Z,100322.41
2022-12-11T13:23:33.912Z,100269.81
2022-12-11T13:26:03.192Z,100270.72
2022-12-11T13:28:38.736Z,100337.13
2022-12-11T13:31:25.509Z,100337.06
2022-12-11T13:33:54.637Z,100299.09
2022-12-11T13:36:24.509Z,100334.47
2022-12-11T13:38:55.376Z,100333.59
2022-12-11T13:41:22.408Z,100310.34
2022-12-11T13:43:50.302Z,100281.81
2022-12-11T13:46:24.511Z,100329.28
2022-12-11T13:49:03.561Z,100297.34
2022-12-11T13:51:32.344Z,100296.41
2022-12-11T13:54:17.626Z,100330.97
2022-12-11T13:57:13.247Z,100323.25
2022-12-11T13:59:46.488Z,100341.38
2022-12-11T14:02:22.553Z,100317.19
2022-12-11T14:04:51.577Z,100349.97
2022-12-11T14:07:26.094Z,100343.06
2022-12-11T14:09:56.899Z,100315.50
2022-12-11T14:12:23.312Z,100327.56
2022-12-11T14:15:01.974Z,100250.84
2022-12-11T14:17:32.118Z,100330.16
2022-12-11T14:20:01.979Z,100355.19
2022-12-11T14:22:30.422Z,100317.19
2022-12-11T14:25:05.307Z,100277.50
2022-12-11T14:27:31.737Z,100254.19
2022-12-11T14:29:58.467Z,100242.97
2022-12-11T14:32:43.421Z,100318.06
2022-12-11T14:35:24.693Z,100359.47
2022-12-11T14:37:52.917Z,100343.97
2022-12-11T14:40:25.253Z,100312.06
2022-12-11T14:43:04.221Z,100356.91
2022-12-11T14:45:40.575Z,100211.16
2022-12-11T14:48:20.489Z,100293.94
2022-12-11T14:50:52.405Z,100346.56
2022-12-11T14:53:25.750Z,100343.13
2022-12-11T14:55:53.221Z,100336.19
2022-12-11T14:58:27.113Z,100218.00
2022-12-11T15:01:28.162Z,100278.41
2022-12-11T15:04:16.480Z,100332.72
2022-12-11T15:06:45.853Z,100306.81
2022-12-11T15:09:27.699Z,100352.56
2022-12-11T15:11:57.200Z,100315.47
2022-12-11T15:14:25.573Z,100335.34
2022-12-11T15:16:56.054Z,100352.56
2022-12-11T15:19:28.725Z,100354.28
2022-12-11T15:21:55.458Z,100319.75
2022-12-11T15:24:35.239Z,100330.97
2022-12-11T15:27:01.731Z,100320.59
2022-12-11T15:29:38.421Z,100348.25
2022-12-11T15:32:04.730Z,100347.41
2022-12-11T15:34:50.688Z,100323.28
2022-12-11T15:37:23.182Z,100346.56
2022-12-11T15:39:50.268Z,100350.00
2022-12-11T15:42:24.892Z,100353.44
2022-12-11T15:44:51.709Z,100353.44
2022-12-11T15:47:24.756Z,100356.91
2022-12-11T15:49:55.669Z,100300.81
2022-12-11T15:52:22.094Z,100212.84
2022-12-11T15:54:48.416Z,100243.03
2022-12-11T15:57:19.155Z,100224.09
2022-12-11T15:59:48.629Z,100358.63
2022-12-11T16:02:15.450Z,100262.88
2022-12-11T16:04:41.835Z,100248.19
2022-12-11T16:07:17.608Z,100376.69
2022-12-11T16:09:45.079Z,100251.59
2022-12-11T16:12:11.896Z,100262.81
2022-12-11T16:14:39.131Z,100245.56
2022-12-11T16:17:07.193Z,100337.91
2022-12-11T16:19:34.510Z,100355.19
2022-12-11T16:22:01.009Z,100333.56
2022-12-11T16:24:27.908Z,100343.09
2022-12-11T16:26:56.115Z,100261.97
2022-12-11T16:29:22.957Z,100129.25
2022-12-11T16:31:49.425Z,100279.19
2022-12-11T16:34:16.226Z,100277.50
2022-12-11T16:36:42.750Z,100195.63
2022-12-11T16:39:12.049Z,100334.41
2022-12-11T16:41:38.786Z,100214.50
2022-12-11T16:44:05.601Z,100224.91
2022-12-11T16:46:32.322Z,100270.56
2022-12-11T16:48:58.807Z,100175.78
2022-12-11T16:51:25.213Z,100244.72
2022-12-11T16:53:51.819Z,100338.78
2022-12-11T16:56:18.264Z,100206.78
2022-12-11T16:58:44.630Z,100315.44
2022-12-11T17:01:15.490Z,100263.66
2022-12-11T17:03:43.436Z,100273.22
2022-12-11T17:06:12.016Z,100312.91
2022-12-11T17:08:39.342Z,100331.81
2022-12-11T17:11:07.597Z,100268.88
2022-12-11T17:13:36.355Z,100349.13
2022-12-11T17:16:08.397Z,100308.59
2022-12-11T17:18:35.311Z,100305.16
2022-12-11T17:21:10.144Z,100296.50
2022-12-11T17:23:36.676Z,100318.06
2022-12-11T17:26:04.477Z,100345.69
2022-12-11T17:28:31.524Z,100311.19
2022-12-11T17:30:58.249Z,100334.50
2022-12-11T17:33:26.324Z,100322.44
2022-12-11T17:35:52.738Z,100337.94
2022-12-11T17:38:19.118Z,100318.97
2022-12-11T17:40:45.899Z,100250.00
2022-12-11T17:43:12.538Z,100219.84
2022-12-11T17:45:43.478Z,100344.88
2022-12-11T17:48:10.262Z,100315.53
2022-12-11T17:50:41.564Z,100319.00
2022-12-11T17:53:09.331Z,100118.09
2022-12-11T17:55:38.086Z,100346.56
2022-12-11T17:58:05.445Z,100303.44
2022-12-11T18:00:33.536Z,100313.78
2022-12-11T18:02:59.955Z,100299.09
2022-12-11T18:05:26.299Z,100205.06
2022-12-11T18:07:57.527Z,100261.97
2022-12-11T18:10:24.942Z,100324.94
2022-12-11T18:12:51.351Z,100255.03
2022-12-11T18:15:20.554Z,100334.41
2022-12-11T18:17:47.130Z,100288.66
2022-12-11T18:20:16.626Z,100346.47
2022-12-11T18:22:43.467Z,100263.66
2022-12-11T18:25:11.972Z,100339.56
2022-12-11T18:27:38.891Z,100326.66
2022-12-11T18:30:05.939Z,100265.41
2022-12-11T18:32:35.196Z,100318.06
2022-12-11T18:35:02.499Z,100346.53
2022-12-11T18:37:28.825Z,100303.41
2022-12-11T18:39:55.158Z,100281.84
2022-12-11T18:42:32.864Z,100349.97
2022-12-11T18:44:59.762Z,100329.28
2022-12-11T18:47:26.242Z,100287.03
2022-12-11T18:49:52.590Z,100306.00
2022-12-11T18:52:18.913Z,100293.06
2022-12-11T18:54:45.714Z,100315.50
2022-12-11T18:57:12.037Z,100272.41
2022-12-11T18:59:38.893Z,100337.06
2022-12-11T19:02:05.428Z,100340.53
2022-12-11T19:04:32.628Z,100316.38
2022-12-11T19:07:00.695Z,100336.19
2022-12-11T19:09:27.282Z,100334.50
2022-12-11T19:11:53.751Z,100299.13
2022-12-11T19:14:20.209Z,100249.13
2022-12-11T19:16:46.568Z,100191.34
2022-12-11T19:19:18.268Z,100336.22
2022-12-11T19:21:46.031Z,100339.66
2022-12-11T19:24:19.083Z,100350.00
2022-12-11T19:26:45.696Z,100340.53
2022-12-11T19:29:21.236Z,100306.03
2022-12-11T19:31:47.951Z,100215.50
2022-12-11T19:34:15.245Z,100341.38
2022-12-11T19:36:46.520Z,100254.28
2022-12-11T19:39:14.327Z,100287.91
2022-12-11T19:41:41.400Z,100329.31
2022-12-11T19:44:08.364Z,100331.03
2022-12-11T19:46:35.444Z,100300.00
2022-12-11T19:49:02.153Z,100249.97
2022-12-11T19:51:34.217Z,100220.66
2022-12-11T19:54:04.454Z,100281.00
2022-12-11T19:56:31.644Z,100324.97
2022-12-11T19:58:58.748Z,100305.09
2022-12-11T20:01:30.056Z,100305.97
2022-12-11T20:04:03.075Z,100337.06
2022-12-11T20:06:34.463Z,100304.25
2022-12-11T20:09:01.888Z,100294.75
2022-12-11T20:11:34.888Z,100318.06
2022-12-11T20:14:01.248Z,100313.72
2022-12-11T20:16:53.867Z,100259.44
2022-12-11T20:19:14.660Z,100307.72
2022-12-11T20:21:42.088Z,100290.47
2022-12-11T20:24:09.358Z,100306.00
2022-12-11T20:26:37.962Z,100318.91
2022-12-11T20:29:07.236Z,100341.38
2022-12-11T20:31:34.013Z,100308.53
2022-12-11T20:34:00.407Z,100268.03
2022-12-11T20:36:26.808Z,100366.38
2022-12-11T20:38:53.335Z,100315.47
2022-12-11T20:41:22.304Z,100323.25
2022-12-11T20:43:49.938Z,100315.53
2022-12-11T20:46:20.876Z,100255.13
2022-12-11T20:48:47.899Z,100128.41
2022-12-11T20:51:19.669Z,100239.59
2022-12-11T20:53:57.341Z,100122.41
2022-12-11T20:56:25.659Z,100165.47
2022-12-11T20:58:52.171Z,100324.16
2022-12-11T21:01:22.445Z,100319.84
2022-12-11T21:03:49.335Z,100325.88
2022-12-11T21:06:26.276Z,100302.56
2022-12-11T21:08:53.615Z,100274.13
2022-12-11T21:11:20.476Z,100309.41
2022-12-11T21:13:46.917Z,100306.81
2022-12-11T21:16:13.365Z,100318.91
2022-12-11T21:18:39.831Z,100320.63
2022-12-11T21:21:06.504Z,100294.75
2022-12-11T21:23:33.685Z,100347.38
2022-12-11T21:26:00.569Z,100349.97
2022-12-11T21:28:30.560Z,100299.06
2022-12-11T21:31:11.137Z,100347.38
2022-12-11T21:33:37.584Z,100312.84
2022-12-11T21:36:06.151Z,100334.38
2022-12-11T21:38:33.244Z,100290.44
2022-12-11T21:41:10.410Z,100358.56
2022-12-11T21:43:42.787Z,100331.81
2022-12-11T21:46:25.386Z,100323.16
2022-12-11T21:48:52.152Z,100351.63
2022-12-11T21:51:24.794Z,100346.44
2022-12-11T21:53:51.849Z,100330.06
2022-12-11T21:56:20.447Z,100308.50
2022-12-11T21:58:48.370Z,100346.47
2022-12-11T22:01:40.713Z,100358.53
2022-12-11T22:04:08.199Z,100355.06
2022-12-11T22:06:35.198Z,100355.91
2022-12-11T22:09:01.871Z,100299.84
2022-12-11T22:11:31.110Z,100337.84
2022-12-11T22:13:57.954Z,100325.72
2022-12-11T22:16:24.632Z,100325.69
2022-12-11T22:18:51.014Z,100338.66
2022-12-11T22:21:17.525Z,100363.69
2022-12-11T22:23:44.704Z,100333.47
2022-12-11T22:26:17.830Z,100338.69
2022-12-11T22:28:44.135Z,100336.09
2022-12-11T22:31:12.585Z,100367.13
2022-12-11T22:33:39.280Z,100330.91
2022-12-11T22:36:06.408Z,100336.06
2022-12-11T22:38:34.623Z,100336.97
2022-12-11T22:41:27.633Z,100332.63
2022-12-11T22:43:54.798Z,100355.03
2022-12-11T22:46:24.593Z,100375.78
2022-12-11T22:48:51.649Z,100350.72
2022-12-11T22:51:18.224Z,100344.66
2022-12-11T22:53:44.723Z,100340.34
2022-12-11T22:56:13.216Z,100375.69
2022-12-11T22:58:40.419Z,100368.84
2022-12-11T23:01:12.255Z,100341.22
2022-12-11T23:03:39.056Z,100346.41
2022-12-11T23:06:07.963Z,100320.50
2022-12-11T23:08:35.163Z,100346.34
2022-12-11T23:11:02.370Z,100348.03
2022-12-11T23:13:28.952Z,100344.59
2022-12-11T23:15:55.309Z,100334.28
2022-12-11T23:18:21.635Z,100313.59
2022-12-11T23:20:49.271Z,100378.34
2022-12-11T23:23:15.668Z,100341.19
2022-12-11T23:25:42.090Z,100351.59
2022-12-11T23:28:08.431Z,100342.94
2022-12-11T23:30:35.109Z,100306.69
2022-12-11T23:33:01.507Z,100360.19
2022-12-11T23:35:27.867Z,100347.22
2022-12-11T23:37:54.241Z,100341.19
2022-12-11T23:40:20.560Z,100373.06
2022-12-11T23:42:46.949Z,100338.47
2022-12-11T23:45:13.519Z,100365.22
2022-12-11T23:47:43.164Z,100363.41
2022-12-11T23:50:09.878Z,100377.16
2022-12-11T23:52:36.256Z,100371.03
2022-12-11T23:55:02.733Z,100383.94
2022-12-11T23:57:29.147Z,100382.19
2022-12-11T23:59:55.443Z,100356.31
